sensor_id;sensor_type;location;lat;lon;timestamp;pressure;altitude;pressure_sealevel;temperature;humidity
67931;BME280;63902;52.000;5.954;2023-12-28T00:00:47;100387.88;;;9.23;89.45
67931;BME280;63902;52.000;5.954;2023-12-28T00:01:47;100393.97;;;9.25;89.93
67931;BME280;63902;52.000;5.954;2023-12-28T00:02:47;100397.47;;;9.26;90.21
67931;BME280;63902;52.000;5.954;2023-12-28T00:03:48;100392.38;;;9.21;90.65
67931;BME280;63902;52.000;5.954;2023-12-28T00:04:49;100387.97;;;9.22;90.92
67931;BME280;63902;52.000;5.954;2023-12-28T00:05:49;100386.34;;;9.17;90.89
67931;BME280;63902;52.000;5.954;2023-12-28T00:06:49;100401.97;;;9.24;91.38
67931;BME280;63902;52.000;5.954;2023-12-28T00:07:50;100384.56;;;9.18;91.18
67931;BME280;63902;52.000;5.954;2023-12-28T00:08:50;100403.75;;;9.23;91.33
67931;BME280;63902;52.000;5.954;2023-12-28T00:09:51;100402.91;;;9.23;91.58
67931;BME280;63902;52.000;5.954;2023-12-28T00:10:51;100406.34;;;9.25;91.36
67931;BME280;63902;52.000;5.954;2023-12-28T00:11:52;100394.16;;;9.21;90.79
67931;BME280;63902;52.000;5.954;2023-12-28T00:12:53;100405.34;;;9.27;91.25
67931;BME280;63902;52.000;5.954;2023-12-28T00:13:55;100372.53;;;9.11;89.86
67931;BME280;63902;52.000;5.954;2023-12-28T00:14:55;100395.50;;;9.31;90.77
67931;BME280;63902;52.000;5.954;2023-12-28T00:15:56;100419.22;;;9.32;91.16
67931;BME280;63902;52.000;5.954;2023-12-28T00:16:56;100410.56;;;9.29;90.84
67931;BME280;63902;52.000;5.954;2023-12-28T00:17:57;100401.78;;;9.28;90.54
67931;BME280;63902;52.000;5.954;2023-12-28T00:18:57;100387.19;;;9.18;91.28
67931;BME280;63902;52.000;5.954;2023-12-28T00:19:58;100389.84;;;9.18;91.54
67931;BME280;63902;52.000;5.954;2023-12-28T00:20:58;100410.56;;;9.29;90.59
67931;BME280;63902;52.000;5.954;2023-12-28T00:21:59;100406.97;;;9.30;91.20
67931;BME280;63902;52.000;5.954;2023-12-28T00:22:59;100417.66;;;9.28;91.01
67931;BME280;63902;52.000;5.954;2023-12-28T00:24:00;100421.16;;;9.29;91.81
67931;BME280;63902;52.000;5.954;2023-12-28T00:25:00;100416.13;;;9.23;91.92
67931;BME280;63902;52.000;5.954;2023-12-28T00:26:00;100414.19;;;9.26;91.65
67931;BME280;63902;52.000;5.954;2023-12-28T00:27:01;100429.91;;;9.31;91.74
67931;BME280;63902;52.000;5.954;2023-12-28T00:28:02;100427.13;;;9.34;91.36
67931;BME280;63902;52.000;5.954;2023-12-28T00:29:04;100428.84;;;9.35;91.85
67931;BME280;63902;52.000;5.954;2023-12-28T00:30:05;100426.19;;;9.35;91.59
67931;BME280;63902;52.000;5.954;2023-12-28T00:31:06;100429.75;;;9.34;91.67
67931;BME280;63902;52.000;5.954;2023-12-28T00:32:06;100420.22;;;9.30;91.45
67931;BME280;63902;52.000;5.954;2023-12-28T00:33:07;100423.53;;;9.35;91.43
67931;BME280;63902;52.000;5.954;2023-12-28T00:34:07;100434.00;;;9.38;91.75
67931;BME280;63902;52.000;5.954;2023-12-28T00:35:08;100432.38;;;9.35;91.89
67931;BME280;63902;52.000;5.954;2023-12-28T00:36:08;100442.94;;;9.35;91.95
67931;BME280;63902;52.000;5.954;2023-12-28T00:37:09;100434.06;;;9.36;91.75
67931;BME280;63902;52.000;5.954;2023-12-28T00:38:09;100443.72;;;9.37;91.94
67931;BME280;63902;52.000;5.954;2023-12-28T00:39:10;100450.81;;;9.37;92.17
67931;BME280;63902;52.000;5.954;2023-12-28T00:40:10;100441.16;;;9.36;91.78
67931;BME280;63902;52.000;5.954;2023-12-28T00:41:11;100436.63;;;9.38;91.96
67931;BME280;63902;52.000;5.954;2023-12-28T00:42:11;100440.16;;;9.38;91.51
67931;BME280;63902;52.000;5.954;2023-12-28T00:43:12;100443.59;;;9.40;91.62
67931;BME280;63902;52.000;5.954;2023-12-28T00:44:14;100435.00;;;9.35;91.79
67931;BME280;63902;52.000;5.954;2023-12-28T00:45:14;100440.03;;;9.41;92.37
67931;BME280;63902;52.000;5.954;2023-12-28T00:46:15;100445.34;;;9.41;92.73
67931;BME280;63902;52.000;5.954;2023-12-28T00:47:15;100433.94;;;9.39;92.97
67931;BME280;63902;52.000;5.954;2023-12-28T00:48:16;100437.53;;;9.38;93.26
67931;BME280;63902;52.000;5.954;2023-12-28T00:49:16;100434.94;;;9.37;92.80
67931;BME280;63902;52.000;5.954;2023-12-28T00:50:17;100442.88;;;9.37;92.65
67931;BME280;63902;52.000;5.954;2023-12-28T00:51:17;100441.88;;;9.39;92.66
67931;BME280;63902;52.000;5.954;2023-12-28T00:52:18;100440.03;;;9.41;92.45
67931;BME280;63902;52.000;5.954;2023-12-28T00:53:18;100444.41;;;9.43;92.72
67931;BME280;63902;52.000;5.954;2023-12-28T00:54:19;100443.47;;;9.44;92.77
67931;BME280;63902;52.000;5.954;2023-12-28T00:55:19;100453.19;;;9.43;92.80
67931;BME280;63902;52.000;5.954;2023-12-28T00:56:20;100442.69;;;9.41;92.93
67931;BME280;63902;52.000;5.954;2023-12-28T00:57:20;100435.06;;;9.34;92.97
67931;BME280;63902;52.000;5.954;2023-12-28T00:58:21;100448.84;;;9.42;92.67
67931;BME280;63902;52.000;5.954;2023-12-28T00:59:23;100454.03;;;9.44;93.00
67931;BME280;63902;52.000;5.954;2023-12-28T01:00:23;100461.09;;;9.45;92.85
67931;BME280;63902;52.000;5.954;2023-12-28T01:01:24;100463.66;;;9.46;93.06
67931;BME280;63902;52.000;5.954;2023-12-28T01:02:24;100461.88;;;9.47;93.02
67931;BME280;63902;52.000;5.954;2023-12-28T01:03:25;100462.78;;;9.46;92.43
67931;BME280;63902;52.000;5.954;2023-12-28T01:04:25;100463.50;;;9.49;92.94
67931;BME280;63902;52.000;5.954;2023-12-28T01:05:26;100458.22;;;9.49;92.58
67931;BME280;63902;52.000;5.954;2023-12-28T01:06:26;100455.56;;;9.49;92.55
67931;BME280;63902;52.000;5.954;2023-12-28T01:07:27;100459.03;;;9.51;92.27
67931;BME280;63902;52.000;5.954;2023-12-28T01:08:27;100447.00;;;9.44;91.93
67931;BME280;63902;52.000;5.954;2023-12-28T01:09:28;100450.09;;;9.54;92.45
67931;BME280;63902;52.000;5.954;2023-12-28T01:10:28;100458.16;;;9.51;92.48
67931;BME280;63902;52.000;5.954;2023-12-28T01:11:29;100459.81;;;9.53;92.92
67931;BME280;63902;52.000;5.954;2023-12-28T01:12:29;100458.13;;;9.52;93.18
67931;BME280;63902;52.000;5.954;2023-12-28T01:13:30;100460.00;;;9.49;92.63
67931;BME280;63902;52.000;5.954;2023-12-28T01:14:32;100460.94;;;9.48;92.80
67931;BME280;63902;52.000;5.954;2023-12-28T01:15:32;100460.78;;;9.52;93.22
67931;BME280;63902;52.000;5.954;2023-12-28T01:16:33;100425.50;;;9.30;93.05
67931;BME280;63902;52.000;5.954;2023-12-28T01:17:33;100458.22;;;9.49;93.30
67931;BME280;63902;52.000;5.954;2023-12-28T01:18:34;100461.66;;;9.51;93.58
67931;BME280;63902;52.000;5.954;2023-12-28T01:19:34;100466.13;;;9.51;93.94
67931;BME280;63902;52.000;5.954;2023-12-28T01:20:35;100468.03;;;9.47;93.75
67931;BME280;63902;52.000;5.954;2023-12-28T01:21:35;100465.38;;;9.47;93.82
67931;BME280;63902;52.000;5.954;2023-12-28T01:22:35;100472.47;;;9.47;93.68
67931;BME280;63902;52.000;5.954;2023-12-28T01:23:36;100458.34;;;9.46;93.53
67931;BME280;63902;52.000;5.954;2023-12-28T01:24:36;100472.25;;;9.51;93.56
67931;BME280;63902;52.000;5.954;2023-12-28T01:25:37;100471.41;;;9.51;93.93
67931;BME280;63902;52.000;5.954;2023-12-28T01:26:37;100467.06;;;9.50;93.42
67931;BME280;63902;52.000;5.954;2023-12-28T01:27:38;100468.72;;;9.52;93.74
67931;BME280;63902;52.000;5.954;2023-12-28T01:28:38;100468.72;;;9.52;93.95
67931;BME280;63902;52.000;5.954;2023-12-28T01:29:40;100466.97;;;9.51;93.86
67931;BME280;63902;52.000;5.954;2023-12-28T01:30:41;100458.63;;;9.40;94.08
67931;BME280;63902;52.000;5.954;2023-12-28T01:31:41;100470.56;;;9.50;94.51
67931;BME280;63902;52.000;5.954;2023-12-28T01:32:41;100469.84;;;9.47;94.20
67931;BME280;63902;52.000;5.954;2023-12-28T01:33:42;100471.66;;;9.45;94.32
67931;BME280;63902;52.000;5.954;2023-12-28T01:34:42;100480.41;;;9.47;94.51
67931;BME280;63902;52.000;5.954;2023-12-28T01:35:43;100464.84;;;9.39;94.37
67931;BME280;63902;52.000;5.954;2023-12-28T01:36:44;100482.25;;;9.45;94.56
67931;BME280;63902;52.000;5.954;2023-12-28T01:37:45;100485.09;;;9.40;94.85
67931;BME280;63902;52.000;5.954;2023-12-28T01:38:46;100494.81;;;9.39;95.13
67931;BME280;63902;52.000;5.954;2023-12-28T01:39:46;100488.66;;;9.39;95.23
67931;BME280;63902;52.000;5.954;2023-12-28T01:40:47;100496.75;;;9.36;95.05
67931;BME280;63902;52.000;5.954;2023-12-28T01:41:47;100491.44;;;9.36;95.18
67931;BME280;63902;52.000;5.954;2023-12-28T01:42:48;100495.81;;;9.37;94.79
67931;BME280;63902;52.000;5.954;2023-12-28T01:43:48;100488.81;;;9.36;94.57
67931;BME280;63902;52.000;5.954;2023-12-28T01:44:50;100503.69;;;9.38;94.76
67931;BME280;63902;52.000;5.954;2023-12-28T01:45:50;100483.75;;;9.30;94.98
67931;BME280;63902;52.000;5.954;2023-12-28T01:46:51;100506.25;;;9.40;94.88
67931;BME280;63902;52.000;5.954;2023-12-28T01:47:53;100488.84;;;9.34;94.97
67931;BME280;63902;52.000;5.954;2023-12-28T01:48:55;100492.19;;;9.39;94.79
67931;BME280;63902;52.000;5.954;2023-12-28T01:49:58;100492.13;;;9.41;94.80
67931;BME280;63902;52.000;5.954;2023-12-28T01:50:59;100500.13;;;9.39;95.06
67931;BME280;63902;52.000;5.954;2023-12-28T01:52:00;100503.75;;;9.37;95.29
67931;BME280;63902;52.000;5.954;2023-12-28T01:53:02;100489.56;;;9.38;95.48
67931;BME280;63902;52.000;5.954;2023-12-28T01:54:03;100499.38;;;9.36;95.49
67931;BME280;63902;52.000;5.954;2023-12-28T01:55:04;100495.81;;;9.37;95.10
67931;BME280;63902;52.000;5.954;2023-12-28T01:56:06;100505.38;;;9.41;95.15
67931;BME280;63902;52.000;5.954;2023-12-28T01:57:06;100497.41;;;9.41;95.09
67931;BME280;63902;52.000;5.954;2023-12-28T01:58:07;100500.97;;;9.40;95.19
67931;BME280;63902;52.000;5.954;2023-12-28T01:59:08;100499.13;;;9.42;95.32
67931;BME280;63902;52.000;5.954;2023-12-28T02:00:11;100498.19;;;9.43;95.35
67931;BME280;63902;52.000;5.954;2023-12-28T02:01:12;100504.41;;;9.42;95.42
67931;BME280;63902;52.000;5.954;2023-12-28T02:02:13;100503.50;;;9.43;95.56
67931;BME280;63902;52.000;5.954;2023-12-28T02:03:13;100505.38;;;9.41;95.28
67931;BME280;63902;52.000;5.954;2023-12-28T02:04:14;100500.84;;;9.43;95.38
67931;BME280;63902;52.000;5.954;2023-12-28T02:05:15;100499.13;;;9.42;95.48
67931;BME280;63902;52.000;5.954;2023-12-28T02:06:15;100493.97;;;9.39;95.75
67931;BME280;63902;52.000;5.954;2023-12-28T02:07:16;100501.09;;;9.37;95.77
67931;BME280;63902;52.000;5.954;2023-12-28T02:08:16;100491.56;;;9.33;95.88
67931;BME280;63902;52.000;5.954;2023-12-28T02:09:17;100500.16;;;9.38;96.00
67931;BME280;63902;52.000;5.954;2023-12-28T02:10:17;100502.81;;;9.38;95.80
67931;BME280;63902;52.000;5.954;2023-12-28T02:11:19;100500.28;;;9.35;96.09
67931;BME280;63902;52.000;5.954;2023-12-28T02:12:19;100502.09;;;9.34;96.11
67931;BME280;63902;52.000;5.954;2023-12-28T02:13:20;100505.59;;;9.35;96.11
67931;BME280;63902;52.000;5.954;2023-12-28T02:14:21;100503.03;;;9.33;95.91
67931;BME280;63902;52.000;5.954;2023-12-28T02:15:23;100496.75;;;9.36;95.97
67931;BME280;63902;52.000;5.954;2023-12-28T02:16:28;100510.09;;;9.33;96.33
67931;BME280;63902;52.000;5.954;2023-12-28T02:17:33;100501.34;;;9.31;96.23
67931;BME280;63902;52.000;5.954;2023-12-28T02:18:38;100478.09;;;9.17;96.39
67931;BME280;63902;52.000;5.954;2023-12-28T02:19:44;100510.97;;;9.33;96.28
67931;BME280;63902;52.000;5.954;2023-12-28T02:20:48;100499.63;;;9.30;96.42
67931;BME280;63902;52.000;5.954;2023-12-28T02:21:50;100508.34;;;9.32;96.63
67931;BME280;63902;52.000;5.954;2023-12-28T02:22:52;100510.19;;;9.30;96.57
67931;BME280;63902;52.000;5.954;2023-12-28T02:23:52;100505.72;;;9.32;96.60
67931;BME280;63902;52.000;5.954;2023-12-28T02:25:04;100504.91;;;9.30;96.42
67931;BME280;63902;52.000;5.954;2023-12-28T02:26:04;100503.06;;;9.32;96.56
67931;BME280;63902;52.000;5.954;2023-12-28T02:27:05;100503.06;;;9.32;96.32
67931;BME280;63902;52.000;5.954;2023-12-28T02:28:05;100504.06;;;9.29;96.59
67931;BME280;63902;52.000;5.954;2023-12-28T02:29:06;100498.75;;;9.29;96.66
67931;BME280;63902;52.000;5.954;2023-12-28T02:30:08;100496.19;;;9.28;96.71
67931;BME280;63902;52.000;5.954;2023-12-28T02:31:14;100504.13;;;9.28;96.93
67931;BME280;63902;52.000;5.954;2023-12-28T02:32:16;100495.38;;;9.26;96.78
67931;BME280;63902;52.000;5.954;2023-12-28T02:33:24;100496.38;;;9.23;97.04
67931;BME280;63902;52.000;5.954;2023-12-28T02:34:32;100489.41;;;9.21;97.08
67931;BME280;63902;52.000;5.954;2023-12-28T02:35:38;100473.91;;;9.11;97.17
67931;BME280;63902;52.000;5.954;2023-12-28T02:36:41;100490.28;;;9.21;97.33
67931;BME280;63902;52.000;5.954;2023-12-28T02:37:47;100484.44;;;9.13;97.21
67931;BME280;63902;52.000;5.954;2023-12-28T02:38:51;100479.75;;;9.19;97.39
67931;BME280;63902;52.000;5.954;2023-12-28T02:39:53;100489.41;;;9.21;97.39
67931;BME280;63902;52.000;5.954;2023-12-28T02:40:56;100490.22;;;9.23;97.32
67931;BME280;63902;52.000;5.954;2023-12-28T02:41:57;100485.72;;;9.25;97.05
67931;BME280;63902;52.000;5.954;2023-12-28T02:42:58;100485.72;;;9.25;97.22
67931;BME280;63902;52.000;5.954;2023-12-28T02:43:58;100469.31;;;9.16;97.21
67931;BME280;63902;52.000;5.954;2023-12-28T02:44:59;100475.31;;;9.20;97.38
67931;BME280;63902;52.000;5.954;2023-12-28T02:46:00;100477.94;;;9.22;97.56
67931;BME280;63902;52.000;5.954;2023-12-28T02:47:00;100466.53;;;9.19;97.18
67931;BME280;63902;52.000;5.954;2023-12-28T02:48:01;100467.44;;;9.18;97.42
67931;BME280;63902;52.000;5.954;2023-12-28T02:49:02;100472.56;;;9.23;97.54
67931;BME280;63902;52.000;5.954;2023-12-28T02:50:03;100475.16;;;9.25;97.39
67931;BME280;63902;52.000;5.954;2023-12-28T02:51:03;100475.03;;;9.28;97.36
67931;BME280;63902;52.000;5.954;2023-12-28T02:52:05;100474.22;;;9.26;97.26
67931;BME280;63902;52.000;5.954;2023-12-28T02:53:05;100477.84;;;9.23;97.33
67931;BME280;63902;52.000;5.954;2023-12-28T02:54:06;100462.28;;;9.15;97.36
67931;BME280;63902;52.000;5.954;2023-12-28T02:55:07;100467.25;;;9.23;97.40
67931;BME280;63902;52.000;5.954;2023-12-28T02:56:09;100469.09;;;9.21;97.35
67931;BME280;63902;52.000;5.954;2023-12-28T02:57:09;100468.25;;;9.21;97.56
67931;BME280;63902;52.000;5.954;2023-12-28T02:58:09;100460.25;;;9.22;97.63
67931;BME280;63902;52.000;5.954;2023-12-28T02:59:10;100425.03;;;9.00;97.39
67931;BME280;63902;52.000;5.954;2023-12-28T03:00:11;100463.56;;;9.27;97.48
67931;BME280;63902;52.000;5.954;2023-12-28T03:01:12;100455.09;;;9.19;97.49
67931;BME280;63902;52.000;5.954;2023-12-28T03:02:12;100453.22;;;9.21;97.51
67931;BME280;63902;52.000;5.954;2023-12-28T03:03:13;100450.53;;;9.23;97.52
67931;BME280;63902;52.000;5.954;2023-12-28T03:04:13;100448.81;;;9.22;97.62
67931;BME280;63902;52.000;5.954;2023-12-28T03:05:14;100438.31;;;9.18;97.75
67931;BME280;63902;52.000;5.954;2023-12-28T03:06:14;100454.22;;;9.18;98.02
67931;BME280;63902;52.000;5.954;2023-12-28T03:07:15;100454.09;;;9.22;97.93
67931;BME280;63902;52.000;5.954;2023-12-28T03:08:15;100460.25;;;9.22;98.00
67931;BME280;63902;52.000;5.954;2023-12-28T03:09:15;100437.13;;;9.05;97.51
67931;BME280;63902;52.000;5.954;2023-12-28T03:10:16;100448.13;;;9.16;98.15
67931;BME280;63902;52.000;5.954;2023-12-28T03:11:18;100448.88;;;9.20;97.94
67931;BME280;63902;52.000;5.954;2023-12-28T03:12:18;100440.13;;;9.18;98.17
67931;BME280;63902;52.000;5.954;2023-12-28T03:13:19;100456.63;;;9.25;97.87
67931;BME280;63902;52.000;5.954;2023-12-28T03:14:19;100418.41;;;9.10;97.83
67931;BME280;63902;52.000;5.954;2023-12-28T03:15:20;100442.31;;;9.29;97.61
67931;BME280;63902;52.000;5.954;2023-12-28T03:16:20;100444.13;;;9.28;97.52
67931;BME280;63902;52.000;5.954;2023-12-28T03:17:21;100457.41;;;9.27;97.47
67931;BME280;63902;52.000;5.954;2023-12-28T03:18:21;100454.88;;;9.24;97.80
67931;BME280;63902;52.000;5.954;2023-12-28T03:19:22;100442.72;;;9.19;97.88
67931;BME280;63902;52.000;5.954;2023-12-28T03:20:22;100447.06;;;9.21;97.72
67931;BME280;63902;52.000;5.954;2023-12-28T03:21:23;100454.09;;;9.22;97.92
67931;BME280;63902;52.000;5.954;2023-12-28T03:22:23;100450.56;;;9.21;97.93
67931;BME280;63902;52.000;5.954;2023-12-28T03:23:24;100452.09;;;9.27;98.02
67931;BME280;63902;52.000;5.954;2023-12-28T03:24:24;100443.41;;;9.25;97.76
67931;BME280;63902;52.000;5.954;2023-12-28T03:25:24;100445.16;;;9.24;97.57
67931;BME280;63902;52.000;5.954;2023-12-28T03:26:26;100435.59;;;9.22;97.59
67931;BME280;63902;52.000;5.954;2023-12-28T03:27:27;100454.88;;;9.24;97.75
67931;BME280;63902;52.000;5.954;2023-12-28T03:28:27;100440.94;;;9.20;97.70
67931;BME280;63902;52.000;5.954;2023-12-28T03:29:28;100448.59;;;9.26;97.68
67931;BME280;63902;52.000;5.954;2023-12-28T03:30:28;100444.16;;;9.27;97.74
67931;BME280;63902;52.000;5.954;2023-12-28T03:31:28;100443.31;;;9.26;97.61
67931;BME280;63902;52.000;5.954;2023-12-28T03:32:29;100446.81;;;9.27;97.38
67931;BME280;63902;52.000;5.954;2023-12-28T03:33:29;100448.47;;;9.29;97.43
67931;BME280;63902;52.000;5.954;2023-12-28T03:34:30;100452.78;;;9.32;97.37
67931;BME280;63902;52.000;5.954;2023-12-28T03:35:30;100457.47;;;9.25;97.21
67931;BME280;63902;52.000;5.954;2023-12-28T03:36:31;100454.63;;;9.30;97.23
67931;BME280;63902;52.000;5.954;2023-12-28T03:37:31;100464.34;;;9.29;97.31
67931;BME280;63902;52.000;5.954;2023-12-28T03:38:32;100458.16;;;9.30;97.14
67931;BME280;63902;52.000;5.954;2023-12-28T03:39:32;100451.97;;;9.30;97.39
67931;BME280;63902;52.000;5.954;2023-12-28T03:40:33;100455.56;;;9.29;97.47
67931;BME280;63902;52.000;5.954;2023-12-28T03:41:34;100460.66;;;9.33;97.38
67931;BME280;63902;52.000;5.954;2023-12-28T03:42:35;100456.22;;;9.34;97.30
67931;BME280;63902;52.000;5.954;2023-12-28T03:43:35;100456.19;;;9.35;97.28
67931;BME280;63902;52.000;5.954;2023-12-28T03:44:36;100444.25;;;9.25;97.34
67931;BME280;63902;52.000;5.954;2023-12-28T03:45:36;100463.22;;;9.35;97.33
67931;BME280;63902;52.000;5.954;2023-12-28T03:46:37;100469.59;;;9.31;97.45
67931;BME280;63902;52.000;5.954;2023-12-28T03:47:37;100465.75;;;9.38;97.16
67931;BME280;63902;52.000;5.954;2023-12-28T03:48:38;100463.84;;;9.41;96.84
67931;BME280;63902;52.000;5.954;2023-12-28T03:49:39;100444.56;;;9.38;96.70
67931;BME280;63902;52.000;5.954;2023-12-28T03:50:39;100468.94;;;9.46;96.74
67931;BME280;63902;52.000;5.954;2023-12-28T03:51:40;100465.25;;;9.50;96.54
67931;BME280;63902;52.000;5.954;2023-12-28T03:52:40;100456.47;;;9.50;96.22
67931;BME280;63902;52.000;5.954;2023-12-28T03:53:40;100468.75;;;9.51;96.57
67931;BME280;63902;52.000;5.954;2023-12-28T03:54:41;100459.88;;;9.52;96.57
67931;BME280;63902;52.000;5.954;2023-12-28T03:55:41;100451.94;;;9.52;96.69
67931;BME280;63902;52.000;5.954;2023-12-28T03:56:44;100452.94;;;9.49;96.51
67931;BME280;63902;52.000;5.954;2023-12-28T03:57:44;100449.38;;;9.50;96.70
67931;BME280;63902;52.000;5.954;2023-12-28T03:58:45;100448.50;;;9.50;96.80
67931;BME280;63902;52.000;5.954;2023-12-28T03:59:45;100460.88;;;9.49;96.47
67931;BME280;63902;52.000;5.954;2023-12-28T04:00:46;100455.53;;;9.51;96.20
67931;BME280;63902;52.000;5.954;2023-12-28T04:01:46;100460.81;;;9.51;96.06
67931;BME280;63902;52.000;5.954;2023-12-28T04:02:47;100460.69;;;9.54;95.58
67931;BME280;63902;52.000;5.954;2023-12-28T04:03:47;100449.97;;;9.57;95.65
67931;BME280;63902;52.000;5.954;2023-12-28T04:04:48;100451.63;;;9.59;95.54
67931;BME280;63902;52.000;5.954;2023-12-28T04:05:48;100452.56;;;9.58;95.68
67931;BME280;63902;52.000;5.954;2023-12-28T04:06:49;100448.38;;;9.53;96.03
67931;BME280;63902;52.000;5.954;2023-12-28T04:07:49;100448.13;;;9.59;95.87
67931;BME280;63902;52.000;5.954;2023-12-28T04:08:50;100452.47;;;9.60;95.87
67931;BME280;63902;52.000;5.954;2023-12-28T04:09:50;100451.56;;;9.61;95.99
67931;BME280;63902;52.000;5.954;2023-12-28T04:10:51;100467.38;;;9.62;95.74
67931;BME280;63902;52.000;5.954;2023-12-28T04:11:53;100451.47;;;9.62;95.86
67931;BME280;63902;52.000;5.954;2023-12-28T04:12:53;100458.53;;;9.63;95.47
67931;BME280;63902;52.000;5.954;2023-12-28T04:13:53;100462.88;;;9.64;95.66
67931;BME280;63902;52.000;5.954;2023-12-28T04:14:54;100463.81;;;9.63;95.42
67931;BME280;63902;52.000;5.954;2023-12-28T04:15:54;100455.75;;;9.67;95.84
67931;BME280;63902;52.000;5.954;2023-12-28T04:16:55;100462.88;;;9.64;95.70
67931;BME280;63902;52.000;5.954;2023-12-28T04:17:56;100457.59;;;9.64;96.03
67931;BME280;63902;52.000;5.954;2023-12-28T04:18:56;100460.28;;;9.63;95.99
67931;BME280;63902;52.000;5.954;2023-12-28T04:19:57;100432.69;;;9.48;95.65
67931;BME280;63902;52.000;5.954;2023-12-28T04:20:57;100417.00;;;9.44;95.24
67931;BME280;63902;52.000;5.954;2023-12-28T04:21:58;100460.22;;;9.64;95.15
67931;BME280;63902;52.000;5.954;2023-12-28T04:22:58;100468.03;;;9.68;95.11
67931;BME280;63902;52.000;5.954;2023-12-28T04:23:59;100458.25;;;9.70;94.86
67931;BME280;63902;52.000;5.954;2023-12-28T04:24:59;100446.00;;;9.67;94.72
67931;BME280;63902;52.000;5.954;2023-12-28T04:26:00;100456.47;;;9.70;94.01
67931;BME280;63902;52.000;5.954;2023-12-28T04:27:02;100457.19;;;9.74;94.65
67931;BME280;63902;52.000;5.954;2023-12-28T04:28:03;100453.63;;;9.75;94.67
67931;BME280;63902;52.000;5.954;2023-12-28T04:29:03;100459.03;;;9.72;94.94
67931;BME280;63902;52.000;5.954;2023-12-28T04:30:05;100455.53;;;9.71;94.63
67931;BME280;63902;52.000;5.954;2023-12-28T04:31:06;100450.56;;;9.63;94.21
67931;BME280;63902;52.000;5.954;2023-12-28T04:32:06;100462.41;;;9.75;94.33
67931;BME280;63902;52.000;5.954;2023-12-28T04:33:07;100462.47;;;9.74;94.64
67931;BME280;63902;52.000;5.954;2023-12-28T04:34:07;100438.78;;;9.71;92.98
67931;BME280;63902;52.000;5.954;2023-12-28T04:35:08;100419.19;;;9.54;92.99
67931;BME280;63902;52.000;5.954;2023-12-28T04:36:08;100448.19;;;9.78;93.50
67931;BME280;63902;52.000;5.954;2023-12-28T04:37:09;100453.34;;;9.81;93.47
67931;BME280;63902;52.000;5.954;2023-12-28T04:38:09;100450.69;;;9.81;93.46
67931;BME280;63902;52.000;5.954;2023-12-28T04:39:10;100451.56;;;9.81;94.01
67931;BME280;63902;52.000;5.954;2023-12-28T04:40:11;100453.25;;;9.82;93.65
67931;BME280;63902;52.000;5.954;2023-12-28T04:41:11;100446.31;;;9.80;93.95
67931;BME280;63902;52.000;5.954;2023-12-28T04:42:13;100442.66;;;9.82;93.78
67931;BME280;63902;52.000;5.954;2023-12-28T04:43:13;100453.47;;;9.78;93.08
67931;BME280;63902;52.000;5.954;2023-12-28T04:44:14;100455.13;;;9.80;93.16
67931;BME280;63902;52.000;5.954;2023-12-28T04:45:14;100450.75;;;9.79;93.37
67931;BME280;63902;52.000;5.954;2023-12-28T04:46:15;100445.72;;;9.73;93.54
67931;BME280;63902;52.000;5.954;2023-12-28T04:47:15;100455.19;;;9.79;92.34
67931;BME280;63902;52.000;5.954;2023-12-28T04:48:16;100436.84;;;9.74;92.62
67931;BME280;63902;52.000;5.954;2023-12-28T04:49:16;100450.63;;;9.82;92.08
67931;BME280;63902;52.000;5.954;2023-12-28T04:50:17;100460.22;;;9.85;92.84
67931;BME280;63902;52.000;5.954;2023-12-28T04:51:17;100465.66;;;9.82;93.10
67931;BME280;63902;52.000;5.954;2023-12-28T04:52:17;100464.72;;;9.83;93.12
67931;BME280;63902;52.000;5.954;2023-12-28T04:53:18;100467.44;;;9.81;93.77
67931;BME280;63902;52.000;5.954;2023-12-28T04:54:18;100464.66;;;9.84;93.98
67931;BME280;63902;52.000;5.954;2023-12-28T04:55:19;100462.06;;;9.83;94.22
67931;BME280;63902;52.000;5.954;2023-12-28T04:56:19;100464.78;;;9.81;94.14
67931;BME280;63902;52.000;5.954;2023-12-28T04:57:21;100468.44;;;9.79;93.70
67931;BME280;63902;52.000;5.954;2023-12-28T04:58:22;100466.59;;;9.81;92.84
67931;BME280;63902;52.000;5.954;2023-12-28T04:59:22;100464.72;;;9.83;93.54
67931;BME280;63902;52.000;5.954;2023-12-28T05:00:23;100452.50;;;9.80;93.60
67931;BME280;63902;52.000;5.954;2023-12-28T05:01:23;100471.88;;;9.81;93.59
67931;BME280;63902;52.000;5.954;2023-12-28T05:02:24;100464.66;;;9.84;93.02
67931;BME280;63902;52.000;5.954;2023-12-28T05:03:24;100479.56;;;9.87;93.14
67931;BME280;63902;52.000;5.954;2023-12-28T05:04:25;100465.50;;;9.85;92.95
67931;BME280;63902;52.000;5.954;2023-12-28T05:05:25;100470.75;;;9.86;93.49
67931;BME280;63902;52.000;5.954;2023-12-28T05:06:27;100474.25;;;9.87;93.83
67931;BME280;63902;52.000;5.954;2023-12-28T05:07:28;100462.06;;;9.83;92.87
67931;BME280;63902;52.000;5.954;2023-12-28T05:08:28;100477.75;;;9.88;93.41
67931;BME280;63902;52.000;5.954;2023-12-28T05:09:29;100467.44;;;9.81;93.37
67931;BME280;63902;52.000;5.954;2023-12-28T05:10:29;100477.84;;;9.86;92.93
67931;BME280;63902;52.000;5.954;2023-12-28T05:11:30;100474.25;;;9.87;92.81
67931;BME280;63902;52.000;5.954;2023-12-28T05:12:31;100486.56;;;9.88;92.15
67931;BME280;63902;52.000;5.954;2023-12-28T05:13:32;100473.19;;;9.91;92.29
67931;BME280;63902;52.000;5.954;2023-12-28T05:14:32;100472.28;;;9.92;92.04
67931;BME280;63902;52.000;5.954;2023-12-28T05:15:33;100478.38;;;9.94;93.10
67931;BME280;63902;52.000;5.954;2023-12-28T05:16:33;100474.06;;;9.92;92.32
67931;BME280;63902;52.000;5.954;2023-12-28T05:17:34;100477.72;;;9.89;91.12
67931;BME280;63902;52.000;5.954;2023-12-28T05:18:34;100475.78;;;9.93;91.03
67931;BME280;63902;52.000;5.954;2023-12-28T05:19:35;100488.91;;;9.96;91.77
67931;BME280;63902;52.000;5.954;2023-12-28T05:20:35;100472.13;;;9.95;91.20
67931;BME280;63902;52.000;5.954;2023-12-28T05:21:36;100480.94;;;9.96;91.50
67931;BME280;63902;52.000;5.954;2023-12-28T05:22:36;100487.09;;;9.96;92.24